sensor_id;sensor_type;location;lat;lon;timestamp;temperature;humidity
22765;DHT22;11549;50.852;3.816;2022-09-21T00:01:39;10.60;99.90
22765;DHT22;11549;50.852;3.816;2022-09-21T00:04:08;10.60;99.90
22765;DHT22;11549;50.852;3.816;2022-09-21T00:06:37;10.60;99.90
22765;DHT22;11549;50.852;3.816;2022-09-21T00:09:05;10.60;99.90
22765;DHT22;11549;50.852;3.816;2022-09-21T00:11:35;10.60;99.90
22765;DHT22;11549;50.852;3.816;2022-09-21T00:14:10;10.60;99.90
22765;DHT22;11549;50.852;3.816;2022-09-21T00:16:39;10.60;99.90
22765;DHT22;11549;50.852;3.816;2022-09-21T00:19:09;10.50;99.90
22765;DHT22;11549;50.852;3.816;2022-09-21T00:21:38;10.50;99.90
22765;DHT22;11549;50.852;3.816;2022-09-21T00:24:07;10.50;99.90
22765;DHT22;11549;50.852;3.816;2022-09-21T00:26:35;10.50;99.90
22765;DHT22;11549;50.852;3.816;2022-09-21T00:29:05;10.50;99.90
22765;DHT22;11549;50.852;3.816;2022-09-21T00:31:34;10.50;99.90
22765;DHT22;11549;50.852;3.816;2022-09-21T00:34:03;10.50;99.90
22765;DHT22;11549;50.852;3.816;2022-09-21T00:36:34;10.50;99.90
22765;DHT22;11549;50.852;3.816;2022-09-21T00:39:03;10.40;99.90
22765;DHT22;11549;50.852;3.816;2022-09-21T00:41:32;10.40;99.90
22765;DHT22;11549;50.852;3.816;2022-09-21T00:44:23;10.50;99.90
22765;DHT22;11549;50.852;3.816;2022-09-21T00:46:54;10.40;99.90
22765;DHT22;11549;50.852;3.816;2022-09-21T00:49:24;10.40;99.90
22765;DHT22;11549;50.852;3.816;2022-09-21T00:51:54;10.40;99.90
22765;DHT22;11549;50.852;3.816;2022-09-21T00:54:28;10.30;99.90
22765;DHT22;11549;50.852;3.816;2022-09-21T00:56:58;10.30;99.90
22765;DHT22;11549;50.852;3.816;2022-09-21T00:59:31;10.30;99.90
22765;DHT22;11549;50.852;3.816;2022-09-21T01:02:01;10.30;99.90
22765;DHT22;11549;50.852;3.816;2022-09-21T01:04:30;10.20;99.90
22765;DHT22;11549;50.852;3.816;2022-09-21T01:07:02;10.20;99.90
22765;DHT22;11549;50.852;3.816;2022-09-21T01:09:33;10.20;99.90
22765;DHT22;11549;50.852;3.816;2022-09-21T01:12:10;10.20;99.90
22765;DHT22;11549;50.852;3.816;2022-09-21T01:14:56;10.20;99.90
22765;DHT22;11549;50.852;3.816;2022-09-21T01:17:35;10.10;99.90
22765;DHT22;11549;50.852;3.816;2022-09-21T01:20:31;10.20;99.90
22765;DHT22;11549;50.852;3.816;2022-09-21T01:23:18;10.20;99.90
22765;DHT22;11549;50.852;3.816;2022-09-21T01:26:00;10.20;99.90
22765;DHT22;11549;50.852;3.816;2022-09-21T01:28:49;10.20;99.90
22765;DHT22;11549;50.852;3.816;2022-09-21T01:31:24;10.20;99.90
22765;DHT22;11549;50.852;3.816;2022-09-21T01:33:58;10.10;99.90
22765;DHT22;11549;50.852;3.816;2022-09-21T01:36:30;10.10;99.90
22765;DHT22;11549;50.852;3.816;2022-09-21T01:39:12;10.10;99.90
22765;DHT22;11549;50.852;3.816;2022-09-21T01:41:42;10.10;99.90
22765;DHT22;11549;50.852;3.816;2022-09-21T01:44:17;10.10;99.90
22765;DHT22;11549;50.852;3.816;2022-09-21T01:46:47;10.00;99.90
22765;DHT22;11549;50.852;3.816;2022-09-21T01:49:20;9.90;99.90
22765;DHT22;11549;50.852;3.816;2022-09-21T01:51:54;9.80;99.90
22765;DHT22;11549;50.852;3.816;2022-09-21T01:54:32;9.70;99.90
22765;DHT22;11549;50.852;3.816;2022-09-21T01:57:06;9.70;99.90
22765;DHT22;11549;50.852;3.816;2022-09-21T01:59:43;9.70;99.90
22765;DHT22;11549;50.852;3.816;2022-09-21T02:02:18;9.60;99.90
22765;DHT22;11549;50.852;3.816;2022-09-21T02:04:48;9.60;99.90
22765;DHT22;11549;50.852;3.816;2022-09-21T02:07:18;9.50;99.90
22765;DHT22;11549;50.852;3.816;2022-09-21T02:09:46;9.50;99.90
22765;DHT22;11549;50.852;3.816;2022-09-21T02:12:15;9.50;99.90
22765;DHT22;11549;50.852;3.816;2022-09-21T02:14:47;9.50;99.90
22765;DHT22;11549;50.852;3.816;2022-09-21T02:17:28;9.50;99.90
22765;DHT22;11549;50.852;3.816;2022-09-21T02:20:11;9.50;99.90
22765;DHT22;11549;50.852;3.816;2022-09-21T02:22:53;9.50;99.90
22765;DHT22;11549;50.852;3.816;2022-09-21T02:25:31;9.50;99.90
22765;DHT22;11549;50.852;3.816;2022-09-21T02:28:07;9.40;99.90
22765;DHT22;11549;50.852;3.816;2022-09-21T02:30:46;9.40;99.90
22765;DHT22;11549;50.852;3.816;2022-09-21T02:33:21;9.30;99.90
22765;DHT22;11549;50.852;3.816;2022-09-21T02:35:57;9.40;99.90
22765;DHT22;11549;50.852;3.816;2022-09-21T02:38:32;9.40;99.90
22765;DHT22;11549;50.852;3.816;2022-09-21T02:41:05;9.40;99.90
22765;DHT22;11549;50.852;3.816;2022-09-21T02:43:38;9.40;99.90
22765;DHT22;11549;50.852;3.816;2022-09-21T02:46:11;9.40;99.90
22765;DHT22;11549;50.852;3.816;2022-09-21T02:48:46;9.40;99.90
22765;DHT22;11549;50.852;3.816;2022-09-21T02:51:18;9.40;99.90
22765;DHT22;11549;50.852;3.816;2022-09-21T02:53:49;9.40;99.90
22765;DHT22;11549;50.852;3.816;2022-09-21T02:56:19;9.50;99.90
22765;DHT22;11549;50.852;3.816;2022-09-21T02:58:53;9.50;99.90
22765;DHT22;11549;50.852;3.816;2022-09-21T03:01:24;9.50;99.90
22765;DHT22;11549;50.852;3.816;2022-09-21T03:03:53;9.50;99.90
22765;DHT22;11549;50.852;3.816;2022-09-21T03:06:22;9.50;99.90
22765;DHT22;11549;50.852;3.816;2022-09-21T03:08:50;9.60;99.90
22765;DHT22;11549;50.852;3.816;2022-09-21T03:11:19;9.50;99.90
22765;DHT22;11549;50.852;3.816;2022-09-21T03:13:47;9.40;99.90
22765;DHT22;11549;50.852;3.816;2022-09-21T03:16:16;9.30;99.90
22765;DHT22;11549;50.852;3.816;2022-09-21T03:18:45;9.30;99.90
22765;DHT22;11549;50.852;3.816;2022-09-21T03:21:14;9.30;99.90
22765;DHT22;11549;50.852;3.816;2022-09-21T03:23:42;9.20;99.90
22765;DHT22;11549;50.852;3.816;2022-09-21T03:26:11;9.30;99.90
22765;DHT22;11549;50.852;3.816;2022-09-21T03:28:39;9.30;99.90
22765;DHT22;11549;50.852;3.816;2022-09-21T03:31:07;9.40;99.90
22765;DHT22;11549;50.852;3.816;2022-09-21T03:33:36;9.50;99.90
22765;DHT22;11549;50.852;3.816;2022-09-21T03:36:06;9.50;99.90
22765;DHT22;11549;50.852;3.816;2022-09-21T03:38:35;9.50;99.90
22765;DHT22;11549;50.852;3.816;2022-09-21T03:41:04;9.50;99.90
22765;DHT22;11549;50.852;3.816;2022-09-21T03:43:32;9.60;99.90
22765;DHT22;11549;50.852;3.816;2022-09-21T03:46:00;9.60;99.90
22765;DHT22;11549;50.852;3.816;2022-09-21T03:48:29;9.50;99.90
22765;DHT22;11549;50.852;3.816;2022-09-21T03:50:58;9.40;99.90
22765;DHT22;11549;50.852;3.816;2022-09-21T03:53:28;9.40;99.90
22765;DHT22;11549;50.852;3.816;2022-09-21T03:55:56;9.40;99.90
22765;DHT22;11549;50.852;3.816;2022-09-21T03:58:25;9.50;99.90
22765;DHT22;11549;50.852;3.816;2022-09-21T04:00:53;9.50;99.90
22765;DHT22;11549;50.852;3.816;2022-09-21T04:03:21;9.50;99.90
22765;DHT22;11549;50.852;3.816;2022-09-21T04:05:49;9.50;99.90
22765;DHT22;11549;50.852;3.816;2022-09-21T04:08:18;9.50;99.90
22765;DHT22;11549;50.852;3.816;2022-09-21T04:10:48;9.40;99.90
22765;DHT22;11549;50.852;3.816;2022-09-21T04:13:16;9.40;99.90
22765;DHT22;11549;50.852;3.816;2022-09-21T04:15:44;9.30;99.90
22765;DHT22;11549;50.852;3.816;2022-09-21T04:18:13;9.30;99.90
22765;DHT22;11549;50.852;3.816;2022-09-21T04:20:41;9.30;99.90
22765;DHT22;11549;50.852;3.816;2022-09-21T04:23:09;9.30;99.90
22765;DHT22;11549;50.852;3.816;2022-09-21T04:25:37;9.30;99.90
22765;DHT22;11549;50.852;3.816;2022-09-21T04:28:09;9.20;99.90
22765;DHT22;11549;50.852;3.816;2022-09-21T04:30:37;9.10;99.90
22765;DHT22;11549;50.852;3.816;2022-09-21T04:33:06;9.10;99.90
22765;DHT22;11549;50.852;3.816;2022-09-21T04:35:34;9.10;99.90
22765;DHT22;11549;50.852;3.816;2022-09-21T04:38:03;9.10;99.90
22765;DHT22;11549;50.852;3.816;2022-09-21T04:40:31;9.20;99.90
22765;DHT22;11549;50.852;3.816;2022-09-21T04:42:59;9.30;99.90
22765;DHT22;11549;50.852;3.816;2022-09-21T04:45:29;9.30;99.90
22765;DHT22;11549;50.852;3.816;2022-09-21T04:47:58;9.30;99.90
22765;DHT22;11549;50.852;3.816;2022-09-21T04:50:26;9.40;99.90
22765;DHT22;11549;50.852;3.816;2022-09-21T04:52:54;9.40;99.90
22765;DHT22;11549;50.852;3.816;2022-09-21T04:55:24;9.40;99.90
22765;DHT22;11549;50.852;3.816;2022-09-21T04:57:52;9.50;99.90
22765;DHT22;11549;50.852;3.816;2022-09-21T05:00:20;9.50;99.90
22765;DHT22;11549;50.852;3.816;2022-09-21T05:02:50;9.50;99.90
22765;DHT22;11549;50.852;3.816;2022-09-21T05:05:18;9.40;99.90
22765;DHT22;11549;50.852;3.816;2022-09-21T05:07:46;9.40;99.90
22765;DHT22;11549;50.852;3.816;2022-09-21T05:10:15;9.40;99.90
22765;DHT22;11549;50.852;3.816;2022-09-21T05:12:42;9.30;99.90
22765;DHT22;11549;50.852;3.816;2022-09-21T05:15:10;9.30;99.90
22765;DHT22;11549;50.852;3.816;2022-09-21T05:17:39;9.30;99.90
22765;DHT22;11549;50.852;3.816;2022-09-21T05:20:10;9.30;99.90
22765;DHT22;11549;50.852;3.816;2022-09-21T05:22:38;9.40;99.90
22765;DHT22;11549;50.852;3.816;2022-09-21T05:25:08;9.30;99.90
22765;DHT22;11549;50.852;3.816;2022-09-21T05:27:36;9.40;99.90
22765;DHT22;11549;50.852;3.816;2022-09-21T05:30:06;9.40;99.90
22765;DHT22;11549;50.852;3.816;2022-09-21T05:32:42;9.50;99.90
22765;DHT22;11549;50.852;3.816;2022-09-21T05:35:21;9.50;99.90
22765;DHT22;11549;50.852;3.816;2022-09-21T05:37:57;9.60;99.90
22765;DHT22;11549;50.852;3.816;2022-09-21T05:40:26;9.50;99.90
22765;DHT22;11549;50.852;3.816;2022-09-21T05:42:55;9.50;99.90
22765;DHT22;11549;50.852;3.816;2022-09-21T05:45:24;9.60;99.90
22765;DHT22;11549;50.852;3.816;2022-09-21T05:48:05;9.60;99.90
22765;DHT22;11549;50.852;3.816;2022-09-21T05:50:52;9.60;99.90
22765;DHT22;11549;50.852;3.816;2022-09-21T05:53:44;9.60;99.90
22765;DHT22;11549;50.852;3.816;2022-09-21T05:56:27;9.70;99.90
22765;DHT22;11549;50.852;3.816;2022-09-21T05:59:04;9.80;99.90
22765;DHT22;11549;50.852;3.816;2022-09-21T06:01:48;9.80;99.90
22765;DHT22;11549;50.852;3.816;2022-09-21T06:04:19;10.00;99.90
22765;DHT22;11549;50.852;3.816;2022-09-21T06:06:49;10.40;99.90
22765;DHT22;11549;50.852;3.816;2022-09-21T06:09:18;10.70;99.90
22765;DHT22;11549;50.852;3.816;2022-09-21T06:11:47;11.10;99.90
22765;DHT22;11549;50.852;3.816;2022-09-21T06:14:15;11.40;99.90
22765;DHT22;11549;50.852;3.816;2022-09-21T06:16:51;11.70;99.90
22765;DHT22;11549;50.852;3.816;2022-09-21T06:19:19;11.90;99.90
22765;DHT22;11549;50.852;3.816;2022-09-21T06:21:49;12.20;99.90
22765;DHT22;11549;50.852;3.816;2022-09-21T06:24:17;12.40;99.90
22765;DHT22;11549;50.852;3.816;2022-09-21T06:26:45;12.80;99.90
22765;DHT22;11549;50.852;3.816;2022-09-21T06:29:14;13.20;99.90
22765;DHT22;11549;50.852;3.816;2022-09-21T06:31:43;13.70;99.90
22765;DHT22;11549;50.852;3.816;2022-09-21T06:34:11;14.10;99.90
22765;DHT22;11549;50.852;3.816;2022-09-21T06:36:39;14.50;99.90
22765;DHT22;11549;50.852;3.816;2022-09-21T06:39:09;15.10;99.90
22765;DHT22;11549;50.852;3.816;2022-09-21T06:41:37;15.70;99.90
22765;DHT22;11549;50.852;3.816;2022-09-21T06:44:05;16.20;99.90
22765;DHT22;11549;50.852;3.816;2022-09-21T06:46:34;16.40;99.90
22765;DHT22;11549;50.852;3.816;2022-09-21T06:49:02;16.50;99.90
22765;DHT22;11549;50.852;3.816;2022-09-21T06:51:30;16.30;99.90
22765;DHT22;11549;50.852;3.816;2022-09-21T06:53:59;16.10;99.90
22765;DHT22;11549;50.852;3.816;2022-09-21T06:56:29;16.00;99.90
22765;DHT22;11549;50.852;3.816;2022-09-21T06:58:58;16.20;99.90
22765;DHT22;11549;50.852;3.816;2022-09-21T07:01:26;16.40;99.90
22765;DHT22;11549;50.852;3.816;2022-09-21T07:03:55;16.80;99.90
22765;DHT22;11549;50.852;3.816;2022-09-21T07:06:23;17.30;99.90
22765;DHT22;11549;50.852;3.816;2022-09-21T07:08:51;17.80;99.90
22765;DHT22;11549;50.852;3.816;2022-09-21T07:11:41;18.30;99.90
22765;DHT22;11549;50.852;3.816;2022-09-21T07:14:10;18.80;99.90
22765;DHT22;11549;50.852;3.816;2022-09-21T07:16:38;19.30;99.90
22765;DHT22;11549;50.852;3.816;2022-09-21T07:19:06;19.60;99.90
22765;DHT22;11549;50.852;3.816;2022-09-21T07:21:37;19.90;99.90
22765;DHT22;11549;50.852;3.816;2022-09-21T07:24:06;20.00;99.90
22765;DHT22;11549;50.852;3.816;2022-09-21T07:26:38;20.20;99.90
22765;DHT22;11549;50.852;3.816;2022-09-21T07:29:08;20.50;99.90
22765;DHT22;11549;50.852;3.816;2022-09-21T07:31:36;20.80;99.90
22765;DHT22;11549;50.852;3.816;2022-09-21T07:34:05;21.00;99.90
22765;DHT22;11549;50.852;3.816;2022-09-21T07:36:33;21.20;99.90
22765;DHT22;11549;50.852;3.816;2022-09-21T07:39:01;21.20;99.90
22765;DHT22;11549;50.852;3.816;2022-09-21T07:41:30;21.20;99.90
22765;DHT22;11549;50.852;3.816;2022-09-21T07:43:59;21.20;99.90
22765;DHT22;11549;50.852;3.816;2022-09-21T07:46:28;21.20;99.90
22765;DHT22;11549;50.852;3.816;2022-09-21T07:48:57;21.30;99.90
22765;DHT22;11549;50.852;3.816;2022-09-21T07:51:25;21.40;99.90
22765;DHT22;11549;50.852;3.816;2022-09-21T07:53:54;21.50;99.90
22765;DHT22;11549;50.852;3.816;2022-09-21T07:56:24;21.90;99.90
22765;DHT22;11549;50.852;3.816;2022-09-21T07:58:52;22.20;99.90
22765;DHT22;11549;50.852;3.816;2022-09-21T08:01:37;22.60;99.90
22765;DHT22;11549;50.852;3.816;2022-09-21T08:04:07;22.50;99.90
22765;DHT22;11549;50.852;3.816;2022-09-21T08:06:37;22.40;99.90
22765;DHT22;11549;50.852;3.816;2022-09-21T08:09:07;22.50;99.90
22765;DHT22;11549;50.852;3.816;2022-09-21T08:11:36;22.30;99.90
22765;DHT22;11549;50.852;3.816;2022-09-21T08:14:05;22.40;99.90
22765;DHT22;11549;50.852;3.816;2022-09-21T08:16:33;22.30;99.90
22765;DHT22;11549;50.852;3.816;2022-09-21T08:19:03;22.40;99.90
22765;DHT22;11549;50.852;3.816;2022-09-21T08:21:32;22.90;99.90
22765;DHT22;11549;50.852;3.816;2022-09-21T08:24:01;23.20;99.90
22765;DHT22;11549;50.852;3.816;2022-09-21T08:26:29;23.40;99.90
22765;DHT22;11549;50.852;3.816;2022-09-21T08:28:57;23.60;99.90
22765;DHT22;11549;50.852;3.816;2022-09-21T08:31:26;23.10;99.90
22765;DHT22;11549;50.852;3.816;2022-09-21T08:33:55;23.30;99.90
22765;DHT22;11549;50.852;3.816;2022-09-21T08:36:26;23.40;99.90
22765;DHT22;11549;50.852;3.816;2022-09-21T08:38:54;23.40;99.90
22765;DHT22;11549;50.852;3.816;2022-09-21T08:41:34;23.40;99.90
22765;DHT22;11549;50.852;3.816;2022-09-21T08:44:14;23.50;99.90
22765;DHT22;11549;50.852;3.816;2022-09-21T08:46:44;23.60;99.90
22765;DHT22;11549;50.852;3.816;2022-09-21T08:49:16;23.70;99.90
22765;DHT22;11549;50.852;3.816;2022-09-21T08:51:51;24.00;99.90
22765;DHT22;11549;50.852;3.816;2022-09-21T08:54:27;24.20;97.90
22765;DHT22;11549;50.852;3.816;2022-09-21T08:56:56;24.40;97.60
22765;DHT22;11549;50.852;3.816;2022-09-21T08:59:32;24.40;96.80
22765;DHT22;11549;50.852;3.816;2022-09-21T09:02:12;24.40;97.10
22765;DHT22;11549;50.852;3.816;2022-09-21T09:04:51;24.60;96.80
22765;DHT22;11549;50.852;3.816;2022-09-21T09:07:47;24.70;95.70
22765;DHT22;11549;50.852;3.816;2022-09-21T09:10:35;24.80;95.30
22765;DHT22;11549;50.852;3.816;2022-09-21T09:13:16;25.00;95.00
22765;DHT22;11549;50.852;3.816;2022-09-21T09:16:04;25.00;95.30
22765;DHT22;11549;50.852;3.816;2022-09-21T09:18:42;24.90;95.10
22765;DHT22;11549;50.852;3.816;2022-09-21T09:21:16;24.50;93.70
22765;DHT22;11549;50.852;3.816;2022-09-21T09:24:02;24.70;94.40
22765;DHT22;11549;50.852;3.816;2022-09-21T09:26:35;24.90;94.80
22765;DHT22;11549;50.852;3.816;2022-09-21T09:29:15;24.10;93.20
22765;DHT22;11549;50.852;3.816;2022-09-21T09:31:46;24.20;95.30
22765;DHT22;11549;50.852;3.816;2022-09-21T09:34:19;24.10;94.40
22765;DHT22;11549;50.852;3.816;2022-09-21T09:36:56;24.40;93.80
22765;DHT22;11549;50.852;3.816;2022-09-21T09:39:28;24.10;92.20
22765;DHT22;11549;50.852;3.816;2022-09-21T09:42:05;24.10;92.50
22765;DHT22;11549;50.852;3.816;2022-09-21T09:47:43;24.00;93.50
22765;DHT22;11549;50.852;3.816;2022-09-21T09:50:20;23.80;95.10
22765;DHT22;11549;50.852;3.816;2022-09-21T09:52:54;23.80;93.70
22765;DHT22;11549;50.852;3.816;2022-09-21T09:55:35;23.80;93.40
22765;DHT22;11549;50.852;3.816;2022-09-21T09:58:06;23.70;93.70
22765;DHT22;11549;50.852;3.816;2022-09-21T10:00:44;23.80;94.20
22765;DHT22;11549;50.852;3.816;2022-09-21T10:03:18;24.10;93.60
22765;DHT22;11549;50.852;3.816;2022-09-21T10:05:46;24.30;92.60
22765;DHT22;11549;50.852;3.816;2022-09-21T10:08:41;24.20;92.40
22765;DHT22;11549;50.852;3.816;2022-09-21T10:11:13;24.30;92.60
22765;DHT22;11549;50.852;3.816;2022-09-21T10:13:44;23.80;90.70
22765;DHT22;11549;50.852;3.816;2022-09-21T10:16:14;23.80;93.90
22765;DHT22;11549;50.852;3.816;2022-09-21T10:18:48;23.60;92.10
22765;DHT22;11549;50.852;3.816;2022-09-21T10:21:20;23.20;94.90
22765;DHT22;11549;50.852;3.816;2022-09-21T10:23:50;23.30;95.00
22765;DHT22;11549;50.852;3.816;2022-09-21T10:26:20;23.50;94.20
22765;DHT22;11549;50.852;3.816;2022-09-21T10:28:57;23.20;91.60
22765;DHT22;11549;50.852;3.816;2022-09-21T10:31:27;23.10;92.50
22765;DHT22;11549;50.852;3.816;2022-09-21T10:34:06;22.40;93.60
22765;DHT22;11549;50.852;3.816;2022-09-21T10:36:38;22.30;93.60
22765;DHT22;11549;50.852;3.816;2022-09-21T10:39:20;22.80;94.50
22765;DHT22;11549;50.852;3.816;2022-09-21T10:41:56;23.20;93.40
22765;DHT22;11549;50.852;3.816;2022-09-21T10:44:27;23.20;91.70
22765;DHT22;11549;50.852;3.816;2022-09-21T10:46:57;23.40;92.50
22765;DHT22;11549;50.852;3.816;2022-09-21T10:49:29;23.50;90.20
22765;DHT22;11549;50.852;3.816;2022-09-21T10:51:58;23.40;90.80
22765;DHT22;11549;50.852;3.816;2022-09-21T10:54:30;23.40;91.80
22765;DHT22;11549;50.852;3.816;2022-09-21T10:57:03;23.30;92.00
22765;DHT22;11549;50.852;3.816;2022-09-21T10:59:35;23.30;92.30
22765;DHT22;11549;50.852;3.816;2022-09-21T11:02:33;23.60;90.30
22765;DHT22;11549;50.852;3.816;2022-09-21T11:05:08;24.00;87.60
22765;DHT22;11549;50.852;3.816;2022-09-21T11:07:42;23.70;81.60
22765;DHT22;11549;50.852;3.816;2022-09-21T11:10:18;23.70;86.60
22765;DHT22;11549;50.852;3.816;2022-09-21T11:13:04;23.10;88.00
22765;DHT22;11549;50.852;3.816;2022-09-21T11:15:45;23.00;85.80
22765;DHT22;11549;50.852;3.816;2022-09-21T11:18:18;23.00;87.10
22765;DHT22;11549;50.852;3.816;2022-09-21T11:20:52;23.10;88.70
22765;DHT22;11549;50.852;3.816;2022-09-21T11:23:35;22.50;87.40
22765;DHT22;11549;50.852;3.816;2022-09-21T11:26:06;22.70;91.60
22765;DHT22;11549;50.852;3.816;2022-09-21T11:28:46;23.20;89.30
22765;DHT22;11549;50.852;3.816;2022-09-21T11:31:34;23.40;86.90
22765;DHT22;11549;50.852;3.816;2022-09-21T11:34:28;23.40;89.70
22765;DHT22;11549;50.852;3.816;2022-09-21T11:37:09;23.50;89.40
22765;DHT22;11549;50.852;3.816;2022-09-21T11:39:53;23.40;88.90
22765;DHT22;11549;50.852;3.816;2022-09-21T11:42:35;22.90;88.10
22765;DHT22;11549;50.852;3.816;2022-09-21T11:45:17;22.40;86.60
22765;DHT22;11549;50.852;3.816;2022-09-21T11:48:00;22.10;85.10
22765;DHT22;11549;50.852;3.816;2022-09-21T11:50:46;21.80;87.50
22765;DHT22;11549;50.852;3.816;2022-09-21T11:53:45;21.80;90.00
22765;DHT22;11549;50.852;3.816;2022-09-21T11:56:28;21.70;92.40
22765;DHT22;11549;50.852;3.816;2022-09-21T11:59:10;21.40;94.00
22765;DHT22;11549;50.852;3.816;2022-09-21T12:01:56;21.50;94.30
22765;DHT22;11549;50.852;3.816;2022-09-21T12:04:39;21.90;93.10
22765;DHT22;11549;50.852;3.816;2022-09-21T12:07:21;22.20;90.80
22765;DHT22;11549;50.852;3.816;2022-09-21T12:10:16;22.20;92.30
22765;DHT22;11549;50.852;3.816;2022-09-21T12:12:50;21.90;90.60
22765;DHT22;11549;50.852;3.816;2022-09-21T12:15:24;21.60;91.90
22765;DHT22;11549;50.852;3.816;2022-09-21T12:18:00;21.30;92.20
22765;DHT22;11549;50.852;3.816;2022-09-21T12:20:37;20.70;92.70
22765;DHT22;11549;50.852;3.816;2022-09-21T12:23:14;20.20;94.10
22765;DHT22;11549;50.852;3.816;2022-09-21T12:25:46;20.00;93.90
22765;DHT22;11549;50.852;3.816;2022-09-21T12:28:20;19.70;93.40
22765;DHT22;11549;50.852;3.816;2022-09-21T12:30:53;19.40;96.10
22765;DHT22;11549;50.852;3.816;2022-09-21T12:33:33;19.50;95.70
22765;DHT22;11549;50.852;3.816;2022-09-21T12:36:09;19.50;95.30
22765;DHT22;11549;50.852;3.816;2022-09-21T12:38:45;19.50;94.70
22765;DHT22;11549;50.852;3.816;2022-09-21T12:41:20;19.80;95.60
22765;DHT22;11549;50.852;3.816;2022-09-21T12:43:54;20.30;94.80
22765;DHT22;11549;50.852;3.816;2022-09-21T12:46:27;20.50;93.90
22765;DHT22;11549;50.852;3.816;2022-09-21T12:49:00;20.80;93.60
22765;DHT22;11549;50.852;3.816;2022-09-21T12:51:33;20.90;91.70
22765;DHT22;11549;50.852;3.816;2022-09-21T12:54:06;21.20;90.60
22765;DHT22;11549;50.852;3.816;2022-09-21T12:56:41;21.40;91.40
22765;DHT22;11549;50.852;3.816;2022-09-21T12:59:22;21.70;90.20
22765;DHT22;11549;50.852;3.816;2022-09-21T13:01:57;21.80;91.30
22765;DHT22;11549;50.852;3.816;2022-09-21T13:04:35;21.90;88.00
22765;DHT22;11549;50.852;3.816;2022-09-21T13:10:16;21.80;85.70
22765;DHT22;11549;50.852;3.816;2022-09-21T13:12:49;22.00;89.20
22765;DHT22;11549;50.852;3.816;2022-09-21T13:15:23;21.90;90.30
22765;DHT22;11549;50.852;3.816;2022-09-21T13:18:00;21.90;89.40
22765;DHT22;11549;50.852;3.816;2022-09-21T13:20:35;21.80;89.90
22765;DHT22;11549;50.852;3.816;2022-09-21T13:23:14;21.90;91.30
22765;DHT22;11549;50.852;3.816;2022-09-21T13:25:47;22.20;90.30
22765;DHT22;11549;50.852;3.816;2022-09-21T13:28:20;22.20;91.40
22765;DHT22;11549;50.852;3.816;2022-09-21T13:34:24;21.80;91.70
22765;DHT22;11549;50.852;3.816;2022-09-21T13:37:22;21.90;91.80
22765;DHT22;11549;50.852;3.816;2022-09-21T13:43:22;21.70;91.20
22765;DHT22;11549;50.852;3.816;2022-09-21T13:45:55;21.50;91.30
22765;DHT22;11549;50.852;3.816;2022-09-21T13:48:26;21.60;92.50
22765;DHT22;11549;50.852;3.816;2022-09-21T13:50:58;22.00;91.90
22765;DHT22;11549;50.852;3.816;2022-09-21T13:53:36;22.10;93.20
22765;DHT22;11549;50.852;3.816;2022-09-21T13:56:17;22.30;92.00
22765;DHT22;11549;50.852;3.816;2022-09-21T13:58:48;22.50;89.30
22765;DHT22;11549;50.852;3.816;2022-09-21T14:01:19;22.20;87.70
22765;DHT22;11549;50.852;3.816;2022-09-21T14:04:18;22.20;89.60
22765;DHT22;11549;50.852;3.816;2022-09-21T14:06:49;22.30;86.50
22765;DHT22;11549;50.852;3.816;2022-09-21T14:09:25;21.90;86.50
22765;DHT22;11549;50.852;3.816;2022-09-21T14:11:56;21.70;88.20
22765;DHT22;11549;50.852;3.816;2022-09-21T14:14:29;21.70;90.30
22765;DHT22;11549;50.852;3.816;2022-09-21T14:16:59;21.60;89.60
22765;DHT22;11549;50.852;3.816;2022-09-21T14:20:01;21.70;89.20
22765;DHT22;11549;50.852;3.816;2022-09-21T14:22:40;21.80;91.30
22765;DHT22;11549;50.852;3.816;2022-09-21T14:25:29;22.10;90.60
22765;DHT22;11549;50.852;3.816;2022-09-21T14:28:10;22.20;89.80
22765;DHT22;11549;50.852;3.816;2022-09-21T14:30:49;22.10;88.40
22765;DHT22;11549;50.852;3.816;2022-09-21T14:33:28;21.80;90.00
22765;DHT22;11549;50.852;3.816;2022-09-21T14:35:59;21.30;90.60
22765;DHT22;11549;50.852;3.816;2022-09-21T14:38:41;21.00;91.50
22765;DHT22;11549;50.852;3.816;2022-09-21T14:41:22;20.40;91.60
22765;DHT22;11549;50.852;3.816;2022-09-21T14:43:53;19.70;92.80
22765;DHT22;11549;50.852;3.816;2022-09-21T14:46:49;19.40;93.50
22765;DHT22;11549;50.852;3.816;2022-09-21T14:49:34;19.20;94.10
22765;DHT22;11549;50.852;3.816;2022-09-21T14:52:08;19.10;96.90
22765;DHT22;11549;50.852;3.816;2022-09-21T14:55:00;19.10;96.20
22765;DHT22;11549;50.852;3.816;2022-09-21T15:00:36;19.20;93.80
22765;DHT22;11549;50.852;3.816;2022-09-21T15:06:21;19.40;93.50
22765;DHT22;11549;50.852;3.816;2022-09-21T15:09:39;19.50;93.40
22765;DHT22;11549;50.852;3.816;2022-09-21T15:12:39;19.50;92.60
22765;DHT22;11549;50.852;3.816;2022-09-21T15:15:22;19.60;92.80
22765;DHT22;11549;50.852;3.816;2022-09-21T15:17:53;19.70;92.40
22765;DHT22;11549;50.852;3.816;2022-09-21T15:20:28;19.90;92.60
22765;DHT22;11549;50.852;3.816;2022-09-21T15:22:58;20.10;91.90
22765;DHT22;11549;50.852;3.816;2022-09-21T15:25:29;20.20;91.30
22765;DHT22;11549;50.852;3.816;2022-09-21T15:28:02;20.30;91.40
22765;DHT22;11549;50.852;3.816;2022-09-21T15:30:31;20.10;91.10
22765;DHT22;11549;50.852;3.816;2022-09-21T15:33:01;20.10;90.60
22765;DHT22;11549;50.852;3.816;2022-09-21T15:35:30;20.10;91.30
22765;DHT22;11549;50.852;3.816;2022-09-21T15:37:59;20.10;91.80
22765;DHT22;11549;50.852;3.816;2022-09-21T15:40:30;19.80;90.20
22765;DHT22;11549;50.852;3.816;2022-09-21T15:43:02;20.00;89.20
22765;DHT22;11549;50.852;3.816;2022-09-21T15:45:44;19.90;89.00
22765;DHT22;11549;50.852;3.816;2022-09-21T15:48:13;19.60;90.50
22765;DHT22;11549;50.852;3.816;2022-09-21T15:50:44;19.70;89.60
22765;DHT22;11549;50.852;3.816;2022-09-21T15:53:17;19.80;90.50
22765;DHT22;11549;50.852;3.816;2022-09-21T15:55:48;19.70;90.60
22765;DHT22;11549;50.852;3.816;2022-09-21T15:58:30;19.80;91.40
22765;DHT22;11549;50.852;3.816;2022-09-21T16:01:03;19.60;92.00
22765;DHT22;11549;50.852;3.816;2022-09-21T16:03:36;19.50;93.40
22765;DHT22;11549;50.852;3.816;2022-09-21T16:06:24;19.30;93.30
22765;DHT22;11549;50.852;3.816;2022-09-21T16:08:53;18.90;93.40
22765;DHT22;11549;50.852;3.816;2022-09-21T16:11:32;18.70;94.10
22765;DHT22;11549;50.852;3.816;2022-09-21T16:14:08;18.60;95.70
22765;DHT22;11549;50.852;3.816;2022-09-21T16:17:21;18.50;96.10
22765;DHT22;11549;50.852;3.816;2022-09-21T16:20:19;18.40;95.60
22765;DHT22;11549;50.852;3.816;2022-09-21T16:22:51;18.30;96.50
22765;DHT22;11549;50.852;3.816;2022-09-21T16:25:29;18.30;97.30
22765;DHT22;11549;50.852;3.816;2022-09-21T16:28:02;18.30;97.30
22765;DHT22;11549;50.852;3.816;2022-09-21T16:30:41;18.30;97.70
22765;DHT22;11549;50.852;3.816;2022-09-21T16:33:33;18.30;97.10
22765;DHT22;11549;50.852;3.816;2022-09-21T16:36:03;18.40;96.70
22765;DHT22;11549;50.852;3.816;2022-09-21T16:38:32;18.40;97.20